Time;durP1;ratioP1;P1;durP2;ratioP2;P2;SDS_P1;SDS_P2;PMS_P1;PMS_P2;Temp;Humidity;BMP_temperature;BMP_pressure;BME280_temperature;BME280_humidity;BME280_pressure;Samples;Min_cycle;Max_cycle;Signal;HPM_P1;HPM_P2
2023/01/01 00:00:00;;;;;;;33.40;20.73;;;;;;;20.63;34.07;100378.28;693788;28;1229;-79
2023/01/01 00:00:21;;;;;;;31.57;20.10;;;;;;;20.69;34.06;100379.94;688299;28;1221;-80
2023/01/01 00:00:42;;;;;;;31.55;19.95;;;;;;;20.64;33.96;100365.88;688121;28;1605;-79
2023/01/01 00:01:10;;;;;;;30.97;19.33;;;;;;;20.71;33.98;100382.59;688342;28;1035;-79
2023/01/01 00:01:31;;;;;;;27.23;17.27;;;;;;;20.65;33.87;100372.94;688305;28;1636;-78
2023/01/01 00:01:52;;;;;;;24.35;16.13;;;;;;;20.68;33.79;100378.19;680254;29;1175;-79
2023/01/01 00:02:12;;;;;;;25.02;15.32;;;;;;;20.73;33.96;100371.03;685388;28;1062;-79
2023/01/01 00:02:33;;;;;;;27.80;16.23;;;;;;;20.71;33.79;100370.19;685598;28;1092;-79
2023/01/01 00:02:55;;;;;;;30.10;17.70;;;;;;;20.69;33.91;100358.72;688134;28;1104;-79
2023/01/01 00:03:16;;;;;;;29.00;19.60;;;;;;;20.69;33.88;100364.00;688326;28;1347;-79
2023/01/01 00:03:36;;;;;;;28.93;18.70;;;;;;;20.68;33.86;100356.97;685392;28;1417;-79
2023/01/01 00:03:58;;;;;;;23.23;15.70;;;;;;;20.81;33.77;100389.44;685676;28;851;-79
2023/01/01 00:04:19;;;;;;;23.10;14.85;;;;;;;20.73;33.72;100370.16;685684;28;1168;-79
2023/01/01 00:04:41;;;;;;;21.40;14.57;;;;;;;20.67;33.88;100377.28;680197;29;1054;-79
2023/01/01 00:05:02;;;;;;;22.83;14.48;;;;;;;20.68;33.97;100373.75;685886;28;1438;-79
2023/01/01 00:05:23;;;;;;;22.30;14.30;;;;;;;20.74;33.91;100386.06;683781;28;917;-79
2023/01/01 00:05:43;;;;;;;22.20;14.30;;;;;;;20.71;33.84;100371.97;685495;28;1182;-79
2023/01/01 00:06:09;;;;;;;23.67;14.30;;;;;;;20.70;33.98;100365.78;680536;29;1010;-79
2023/01/01 00:06:29;;;;;;;23.23;13.48;;;;;;;20.68;34.01;100420.59;683103;29;1251;-80
2023/01/01 00:06:50;;;;;;;25.63;13.07;;;;;;;20.70;33.80;100384.34;680131;29;1181;-79
2023/01/01 00:07:11;;;;;;;24.53;12.67;;;;;;;20.73;33.75;100375.47;685605;28;1289;-79
2023/01/01 00:07:32;;;;;;;23.42;12.50;;;;;;;20.81;33.79;100408.88;688507;28;1574;-79
2023/01/01 00:07:52;;;;;;;21.92;12.05;;;;;;;20.86;33.57;100415.84;683080;28;1141;-80
2023/01/01 00:08:13;;;;;;;18.60;11.27;;;;;;;20.69;33.72;100374.63;683159;29;1209;-79
2023/01/01 00:08:34;;;;;;;19.17;11.00;;;;;;;20.69;33.74;100369.31;685762;28;1116;-79
2023/01/01 00:10:29;;;;;;;22.70;11.77;;;;;;;20.85;33.80;100376.97;685625;28;1354;-79
2023/01/01 00:10:49;;;;;;;22.55;12.30;;;;;;;20.81;33.60;100366.47;689839;28;984;-78
2023/01/01 00:11:10;;;;;;;19.63;11.65;;;;;;;20.79;33.52;100380.66;691173;28;1205;-79
2023/01/01 00:11:31;;;;;;;18.38;11.13;;;;;;;20.81;33.57;100377.06;688573;28;1013;-79
2023/01/01 00:11:51;;;;;;;16.97;10.80;;;;;;;20.81;33.55;100379.72;688142;28;1173;-79
2023/01/01 00:12:12;;;;;;;17.25;10.77;;;;;;;20.63;33.75;100369.44;682937;29;1329;-78
2023/01/01 00:12:33;;;;;;;18.40;11.03;;;;;;;20.77;33.88;100370.06;685618;28;1290;-79
2023/01/01 00:12:57;;;;;;;15.95;10.50;;;;;;;20.58;34.02;100358.06;685337;28;1075;-79
2023/01/01 00:13:18;;;;;;;16.33;10.63;;;;;;;20.71;33.87;100369.34;688372;28;1109;-79
2023/01/01 00:13:40;;;;;;;16.92;10.70;;;;;;;20.75;33.77;100387.78;682896;29;1109;-79
2023/01/01 00:14:01;;;;;;;17.10;10.70;;;;;;;20.74;33.63;100383.41;688317;28;1364;-78
2023/01/01 00:14:21;;;;;;;16.60;10.97;;;;;;;20.77;33.72;100383.31;685710;28;744;-79
2023/01/01 00:14:43;;;;;;;15.40;10.80;;;;;;;20.79;33.63;100381.50;685580;28;1094;-79
2023/01/01 00:15:04;;;;;;;18.45;10.73;;;;;;;20.86;33.64;100381.38;685508;28;1293;-79
2023/01/01 00:15:26;;;;;;;18.23;10.18;;;;;;;20.86;33.63;100387.56;685682;28;1288;-79
2023/01/01 00:15:48;;;;;;;18.17;9.90;;;;;;;20.80;33.71;100379.72;688182;28;1040;-79
2023/01/01 00:16:12;;;;;;;15.90;9.88;;;;;;;20.75;33.45;100374.53;688437;28;1070;-79
2023/01/01 00:16:33;;;;;;;15.02;10.02;;;;;;;20.80;33.48;100393.88;685482;28;1358;-79
2023/01/01 00:16:55;;;;;;;13.97;10.00;;;;;;;20.82;33.47;100381.47;685453;28;1324;-79
2023/01/01 00:17:15;;;;;;;13.88;10.15;;;;;;;20.80;33.48;100385.94;685547;28;1316;-79
2023/01/01 00:17:36;;;;;;;14.17;10.23;;;;;;;20.70;33.55;100371.09;685369;28;1209;-79
2023/01/01 00:17:56;;;;;;;15.18;10.10;;;;;;;20.81;33.60;100390.31;685587;28;1339;-79
2023/01/01 00:18:17;;;;;;;17.13;10.30;;;;;;;20.85;33.63;100369.03;685483;28;1098;-79
2023/01/01 00:18:39;;;;;;;18.60;10.38;;;;;;;20.86;33.41;100389.34;682580;29;1207;-79
2023/01/01 00:18:59;;;;;;;18.83;10.07;;;;;;;20.96;33.28;100388.22;682949;29;1262;-79
2023/01/01 00:19:20;;;;;;;18.80;9.95;;;;;;;20.92;33.35;100386.56;685468;28;1914;-79
2023/01/01 00:19:41;;;;;;;16.83;10.20;;;;;;;20.74;33.61;100394.00;682768;28;1265;-80
2023/01/01 00:20:03;;;;;;;16.23;10.37;;;;;;;20.80;33.65;100393.88;682951;29;1158;-79
2023/01/01 00:20:23;;;;;;;17.45;10.00;;;;;;;20.83;33.40;100398.22;685643;28;1124;-79
2023/01/01 00:20:44;;;;;;;19.42;10.52;;;;;;;20.93;33.31;100390.97;687803;28;1269;-79
2023/01/01 00:21:14;;;;;;;19.83;11.07;;;;;;;20.89;33.58;100391.94;685395;28;1149;-79
2023/01/01 00:21:34;;;;;;;18.73;11.00;;;;;;;20.90;33.36;100375.13;685492;28;1068;-79
2023/01/01 00:21:55;;;;;;;19.67;10.73;;;;;;;20.91;33.23;100384.81;685295;28;1185;-79
2023/01/01 00:22:16;;;;;;;18.90;10.60;;;;;;;20.89;33.40;100381.34;685564;28;1203;-79
2023/01/01 00:22:37;;;;;;;18.25;10.30;;;;;;;20.91;33.44;100395.44;685435;28;1084;-80
2023/01/01 00:22:57;;;;;;;18.00;9.80;;;;;;;20.92;33.09;100378.59;683044;28;1133;-79
2023/01/01 00:23:18;;;;;;;17.90;9.50;;;;;;;20.97;33.29;100400.59;689143;28;1029;-79
2023/01/01 00:23:40;;;;;;;17.10;9.48;;;;;;;20.88;33.36;100384.88;686583;28;1150;-78
2023/01/01 00:24:01;;;;;;;16.00;9.70;;;;;;;20.96;33.24;100396.19;686816;28;1224;-79
2023/01/01 00:24:22;;;;;;;13.65;9.20;;;;;;;20.84;33.41;100399.09;681411;29;830;-79
2023/01/01 00:24:42;;;;;;;16.40;9.50;;;;;;;20.91;33.17;100395.44;683895;29;1214;-78
2023/01/01 00:25:04;;;;;;;16.92;9.52;;;;;;;20.90;33.32;100393.69;686096;28;1190;-79
2023/01/01 00:25:25;;;;;;;16.48;9.73;;;;;;;20.85;33.49;100392.91;686743;28;1331;-79
2023/01/01 00:25:46;;;;;;;13.52;9.45;;;;;;;20.88;33.41;100400.78;680892;28;1422;-78
2023/01/01 00:26:12;;;;;;;13.15;9.48;;;;;;;20.88;33.24;100395.47;680548;29;1006;-79
2023/01/01 00:26:33;;;;;;;14.70;9.90;;;;;;;20.96;33.28;100393.53;683518;28;1052;-80
2023/01/01 00:26:53;;;;;;;20.50;10.50;;;;;;;20.95;33.04;100407.69;680737;29;1019;-79
2023/01/01 00:27:14;;;;;;;21.40;10.50;;;;;;;21.00;33.09;100400.53;683537;29;1187;-79
2023/01/01 00:27:36;;;;;;;20.83;10.07;;;;;;;20.94;33.17;100409.50;685892;28;1180;-79
2023/01/01 00:27:57;;;;;;;16.75;9.20;;;;;;;21.05;33.07;100406.63;686130;28;796;-80
2023/01/01 00:28:17;;;;;;;16.10;9.07;;;;;;;21.05;33.10;100403.97;688909;28;1155;-78
2023/01/01 00:28:38;;;;;;;16.13;9.45;;;;;;;20.99;32.98;100393.47;685964;28;1209;-79
2023/01/01 00:29:00;;;;;;;15.30;9.30;;;;;;;21.05;33.04;100414.56;685508;28;1331;-79
2023/01/01 00:29:20;;;;;;;14.50;9.23;;;;;;;21.21;32.85;100430.16;683399;29;995;-79
2023/01/01 00:29:42;;;;;;;14.18;9.40;;;;;;;21.12;32.79;100395.84;685522;28;1032;-79
2023/01/01 00:30:03;;;;;;;14.90;10.00;;;;;;;21.15;32.75;100393.16;685881;28;1159;-80
2023/01/01 00:30:24;;;;;;;15.45;9.93;;;;;;;21.17;32.39;100391.31;685704;28;838;-79
2023/01/01 00:30:45;;;;;;;13.50;9.73;;;;;;;21.19;32.51;100394.81;678058;29;1456;-79
2023/01/01 00:31:16;;;;;;;13.23;9.35;;;;;;;21.20;32.54;100423.09;678262;29;1219;-79
2023/01/01 00:31:37;;;;;;;15.88;9.02;;;;;;;21.21;32.60;100419.56;681331;29;1052;-79
2023/01/01 00:31:57;;;;;;;17.05;9.15;;;;;;;21.20;32.41;100417.78;685164;28;1075;-79
2023/01/01 00:32:18;;;;;;;15.70;9.33;;;;;;;21.22;32.48;100419.50;688309;28;1193;-79
2023/01/01 00:32:38;;;;;;;16.23;9.35;;;;;;;21.29;32.44;100417.59;688210;28;1025;-78
2023/01/01 00:32:59;;;;;;;16.40;9.20;;;;;;;21.26;32.44;100400.88;688254;28;1084;-79
2023/01/01 00:33:19;;;;;;;14.95;8.80;;;;;;;21.31;32.16;100399.84;683011;29;1089;-79
2023/01/01 00:33:40;;;;;;;16.57;9.30;;;;;;;21.36;32.18;100395.31;685510;28;1004;-78
2023/01/01 00:34:00;;;;;;;16.05;10.00;;;;;;;21.36;32.15;100408.59;685476;28;1117;-79
2023/01/01 00:34:21;;;;;;;16.02;10.18;;;;;;;21.32;32.24;100396.28;685440;28;1514;-79
2023/01/01 00:34:42;;;;;;;15.13;9.80;;;;;;;21.33;32.61;100418.41;688181;28;1109;-79
2023/01/01 00:35:03;;;;;;;14.32;9.15;;;;;;;21.24;32.25;100414.16;688117;28;1066;-79
2023/01/01 00:35:24;;;;;;;14.48;9.10;;;;;;;21.28;32.36;100394.63;688249;28;1345;-79
2023/01/01 00:35:45;;;;;;;15.50;9.20;;;;;;;21.31;32.36;100391.88;688015;28;992;-78
2023/01/01 00:36:06;;;;;;;17.05;9.15;;;;;;;21.31;32.26;100413.13;685659;28;950;-79
2023/01/01 00:36:28;;;;;;;16.65;9.30;;;;;;;21.23;32.46;100417.72;682765;29;1253;-79
2023/01/01 00:36:49;;;;;;;15.48;9.38;;;;;;;21.33;32.29;100419.25;682578;29;1341;-79
2023/01/01 00:37:10;;;;;;;15.00;9.80;;;;;;;21.31;32.25;100396.31;680248;29;1046;-79
2023/01/01 00:37:31;;;;;;;16.20;10.30;;;;;;;21.27;32.32;100413.22;682954;29;1458;-80
2023/01/01 00:37:53;;;;;;;15.13;9.90;;;;;;;21.26;32.34;100380.50;685359;28;1246;-79
2023/01/01 00:38:14;;;;;;;15.40;9.50;;;;;;;21.29;32.27;100385.75;688231;28;1090;-79
2023/01/01 00:38:35;;;;;;;16.77;9.05;;;;;;;21.21;32.52;100377.09;685423;28;1184;-79
2023/01/01 00:38:55;;;;;;;17.75;9.20;;;;;;;21.26;32.47;100393.75;680343;29;804;-79
2023/01/01 00:39:16;;;;;;;17.83;9.60;;;;;;;21.19;32.63;100392.16;682751;29;1904;-79
2023/01/01 00:39:37;;;;;;;16.25;9.50;;;;;;;21.12;32.66;100383.47;682654;28;1212;-78
2023/01/01 00:39:57;;;;;;;17.40;9.20;;;;;;;21.13;32.61;100387.88;688119;28;1114;-79
2023/01/01 00:40:18;;;;;;;17.77;8.98;;;;;;;21.10;32.75;100395.91;682848;28;1452;-79
2023/01/01 00:40:39;;;;;;;18.40;9.13;;;;;;;21.20;32.63;100428.38;682691;28;1259;-80
2023/01/01 00:41:00;;;;;;;16.42;9.60;;;;;;;21.23;32.42;100396.50;685666;28;1328;-80
2023/01/01 00:41:20;;;;;;;16.83;9.40;;;;;;;21.17;32.60;100391.31;680195;29;1446;-79
2023/01/01 00:41:41;;;;;;;15.75;9.23;;;;;;;21.15;32.60;100399.31;682846;29;1096;-80
2023/01/01 00:42:02;;;;;;;19.10;9.20;;;;;;;21.24;32.61;100424.78;680070;29;1358;-79
2023/01/01 00:42:22;;;;;;;19.27;9.05;;;;;;;21.19;32.57;100406.31;682940;29;741;-79
2023/01/01 00:42:43;;;;;;;17.80;9.27;;;;;;;21.18;32.43;100398.38;680050;29;1039;-80
2023/01/01 00:43:04;;;;;;;17.70;9.20;;;;;;;21.13;32.54;100406.44;682982;29;1265;-79
2023/01/01 00:43:24;;;;;;;19.03;9.77;;;;;;;21.13;32.50;100421.50;685475;28;873;-79
2023/01/01 00:43:45;;;;;;;19.40;9.35;;;;;;;21.12;32.58;100388.78;680226;29;1092;-79
2023/01/01 00:44:06;;;;;;;17.08;9.80;;;;;;;21.08;32.68;100374.69;680226;28;1511;-79
2023/01/01 00:44:26;;;;;;;17.33;10.00;;;;;;;21.13;32.61;100395.81;683041;29;756;-79
2023/01/01 00:44:47;;;;;;;19.63;10.23;;;;;;;21.17;32.64;100396.63;680791;28;1170;-79
2023/01/01 00:45:08;;;;;;;22.05;10.00;;;;;;;21.15;32.67;100393.16;685558;28;1221;-78
2023/01/01 00:45:29;;;;;;;21.17;9.68;;;;;;;21.10;32.51;100388.78;685542;28;1142;-79
2023/01/01 00:45:52;;;;;;;18.23;9.50;;;;;;;21.19;32.67;100387.72;685273;28;1083;-79
2023/01/01 00:46:13;;;;;;;17.02;9.40;;;;;;;21.19;32.54;100386.84;680307;29;966;-79
2023/01/01 00:46:34;;;;;;;19.58;9.70;;;;;;;21.09;32.59;100400.31;682967;29;1255;-79
2023/01/01 00:46:55;;;;;;;19.92;10.00;;;;;;;21.11;32.62;100387.03;685420;28;1134;-79
2023/01/01 00:47:16;;;;;;;18.67;9.77;;;;;;;21.12;32.81;100386.13;685717;28;1131;-79
2023/01/01 00:47:36;;;;;;;18.25;10.02;;;;;;;21.08;32.73;100385.31;682764;28;1384;-79
2023/01/01 00:47:57;;;;;;;19.35;9.70;;;;;;;21.13;32.68;100387.00;682902;29;1331;-79
2023/01/01 00:48:18;;;;;;;17.60;9.93;;;;;;;20.95;32.87;100370.56;683140;28;1160;-78
2023/01/01 00:48:39;;;;;;;18.17;9.82;;;;;;;20.98;32.89;100390.84;682893;29;1134;-79
2023/01/01 00:49:00;;;;;;;16.52;10.00;;;;;;;20.93;32.86;100372.38;685570;28;937;-79
2023/01/01 00:49:20;;;;;;;15.93;9.90;;;;;;;20.92;32.96;100378.59;680225;29;1175;-79
2023/01/01 00:49:41;;;;;;;16.80;10.10;;;;;;;20.85;33.04;100363.72;680143;29;1103;-79
2023/01/01 00:50:02;;;;;;;16.98;9.75;;;;;;;20.82;33.17;100376.16;680375;29;1151;-79
2023/01/01 00:50:23;;;;;;;17.08;9.88;;;;;;;20.89;33.04;100373.38;680382;29;827;-78
2023/01/01 00:50:44;;;;;;;14.77;9.37;;;;;;;20.81;33.27;100373.53;680478;28;1326;-79
2023/01/01 00:51:05;;;;;;;13.25;9.45;;;;;;;20.88;33.06;100380.44;680912;29;1068;-79
2023/01/01 00:51:25;;;;;;;13.82;9.55;;;;;;;20.84;33.59;100393.81;680717;29;1117;-79
2023/01/01 00:51:46;;;;;;;16.27;9.65;;;;;;;20.74;33.30;100372.78;680690;29;1125;-79
2023/01/01 00:52:06;;;;;;;16.83;9.50;;;;;;;20.69;33.54;100380.81;683567;28;1064;-79
2023/01/01 00:52:27;;;;;;;16.60;9.70;;;;;;;20.59;33.58;100357.16;681025;29;744;-79
2023/01/01 00:52:49;;;;;;;15.15;9.48;;;;;;;20.59;33.43;100371.28;680781;29;1061;-79
2023/01/01 00:53:09;;;;;;;14.65;9.30;;;;;;;20.66;33.21;100382.66;681002;29;1226;-79
2023/01/01 00:53:30;;;;;;;16.30;9.30;;;;;;;20.62;33.45;100378.31;681421;29;801;-78
2023/01/01 00:53:51;;;;;;;14.67;9.30;;;;;;;20.61;33.33;100360.66;685124;28;1317;-79
2023/01/01 00:54:12;;;;;;;14.48;9.40;;;;;;;20.67;33.29;100371.13;683239;29;1118;-79
2023/01/01 00:54:32;;;;;;;12.55;8.82;;;;;;;20.63;33.23;100362.38;688525;28;1295;-79
2023/01/01 00:54:53;;;;;;;14.32;9.00;;;;;;;20.62;33.31;100362.41;694296;28;1247;-79
2023/01/01 00:55:14;;;;;;;16.15;9.10;;;;;;;20.76;33.18;100375.38;683413;28;1164;-79
2023/01/01 00:55:34;;;;;;;19.17;9.70;;;;;;;20.69;33.33;100359.59;688639;28;1222;-79
2023/01/01 00:55:55;;;;;;;19.50;10.00;;;;;;;20.75;33.42;100385.13;685796;28;1281;-78
2023/01/01 00:56:16;;;;;;;19.83;10.10;;;;;;;20.65;33.33;100368.50;686215;29;1120;-78
2023/01/01 00:56:36;;;;;;;16.53;9.40;;;;;;;20.71;33.29;100385.25;685294;29;1213;-79
2023/01/01 00:56:57;;;;;;;15.68;9.00;;;;;;;20.72;33.17;100379.88;686099;29;1105;-78
2023/01/01 00:57:17;;;;;;;15.05;9.05;;;;;;;20.67;33.29;100376.44;685933;29;1512;-78
2023/01/01 00:57:38;;;;;;;13.80;9.20;;;;;;;20.61;33.46;100387.16;685742;29;1064;-79
2023/01/01 00:57:59;;;;;;;13.88;9.48;;;;;;;20.55;33.49;100383.72;682812;29;1177;-79
2023/01/01 00:58:19;;;;;;;13.33;9.70;;;;;;;20.59;33.50;100381.03;685478;29;1098;-79
2023/01/01 00:58:40;;;;;;;16.20;9.90;;;;;;;20.65;33.62;100380.91;685470;29;1104;-77
2023/01/01 00:59:00;;;;;;;17.17;9.68;;;;;;;20.61;33.26;100361.53;687955;28;1372;-79
2023/01/01 00:59:21;;;;;;;18.07;10.00;;;;;;;20.62;33.52;100391.56;684924;28;1984;-79
2023/01/01 00:59:41;;;;;;;16.00;9.85;;;;;;;20.67;33.33;100392.34;684556;28;1042;-79
2023/01/01 01:00:03;;;;;;;16.20;10.33;;;;;;;20.71;33.46;100388.75;686692;28;1064;-79
2023/01/01 01:00:24;;;;;;;15.68;10.02;;;;;;;20.63;33.32;100372.97;689462;28;842;-79
2023/01/01 01:00:45;;;;;;;16.80;9.68;;;;;;;20.74;33.47;100377.22;683817;28;1403;-79
2023/01/01 01:01:05;;;;;;;21.60;9.98;;;;;;;20.64;33.22;100376.47;681296;29;1308;-79
2023/01/01 01:01:26;;;;;;;21.27;10.30;;;;;;;20.72;33.36;100389.63;683724;28;1446;-79
2023/01/01 01:01:47;;;;;;;21.73;10.87;;;;;;;20.73;33.22;100388.72;683791;29;1098;-79
2023/01/01 01:02:07;;;;;;;14.85;9.75;;;;;;;20.69;33.19;100382.56;686389;28;1157;-79
2023/01/01 01:02:28;;;;;;;17.40;9.67;;;;;;;20.74;33.30;100391.34;681330;29;863;-79
2023/01/01 01:02:48;;;;;;;17.10;9.35;;;;;;;20.61;33.57;100387.16;683592;28;1152;-79
2023/01/01 01:03:26;;;;;;;17.80;9.73;;;;;;;20.59;33.65;100383.69;683371;29;1258;-79
2023/01/01 01:03:47;;;;;;;14.95;9.85;;;;;;;20.59;33.53;100383.69;683668;29;986;-79
2023/01/01 01:04:08;;;;;;;15.95;10.00;;;;;;;20.63;33.45;100391.53;680918;29;947;-79
2023/01/01 01:04:28;;;;;;;16.60;10.32;;;;;;;20.60;33.56;100377.47;681145;29;1323;-79
2023/01/01 01:04:50;;;;;;;15.65;9.80;;;;;;;20.55;33.59;100383.72;680975;29;1367;-79
2023/01/01 01:05:10;;;;;;;16.80;10.00;;;;;;;20.63;33.59;100385.34;680923;29;1105;-78
2023/01/01 01:05:32;;;;;;;16.92;9.98;;;;;;;20.59;33.67;100391.63;686300;28;1336;-79
2023/01/01 01:06:01;;;;;;;16.50;10.10;;;;;;;20.62;33.72;100388.91;686123;28;1335;-79
2023/01/01 01:06:23;;;;;;;17.98;10.45;;;;;;;20.55;33.78;100393.47;683539;28;1381;-79
2023/01/01 01:06:44;;;;;;;18.70;10.52;;;;;;;20.51;33.86;100382.06;683390;28;1555;-79
2023/01/01 01:07:04;;;;;;;19.27;10.30;;;;;;;20.50;33.74;100374.13;683629;29;1013;-79
2023/01/01 01:07:25;;;;;;;20.35;10.20;;;;;;;20.52;33.73;100378.50;682977;29;1209;-79
2023/01/01 01:07:46;;;;;;;19.17;10.10;;;;;;;20.52;34.04;100394.41;677954;29;1290;-78
2023/01/01 01:08:07;;;;;;;18.17;10.15;;;;;;;20.52;33.78;100396.16;680892;29;1073;-79
2023/01/01 01:08:30;;;;;;;18.20;9.93;;;;;;;20.61;33.73;100395.13;683447;29;1028;-79
2023/01/01 01:08:50;;;;;;;20.50;10.30;;;;;;;20.52;33.61;100391.75;680544;29;1328;-79
2023/01/01 01:09:11;;;;;;;18.60;10.30;;;;;;;20.60;33.53;100409.28;683431;29;1304;-79
2023/01/01 01:09:32;;;;;;;18.30;10.43;;;;;;;20.44;33.66;100396.31;680766;29;1069;-79
2023/01/01 01:09:52;;;;;;;15.90;10.57;;;;;;;20.44;33.71;100391.03;683415;28;1025;-79
2023/01/01 01:10:13;;;;;;;15.73;10.35;;;;;;;20.45;33.69;100394.53;680835;29;1249;-80
2023/01/01 01:10:34;;;;;;;14.57;10.10;;;;;;;20.50;33.68;100398.84;680791;29;1485;-79
2023/01/01 01:10:54;;;;;;;18.02;10.50;;;;;;;20.53;33.44;100395.28;678037;29;1180;-79
2023/01/01 01:11:18;;;;;;;18.80;10.70;;;;;;;20.50;33.50;100417.41;680051;29;1045;-79
2023/01/01 01:11:39;;;;;;;19.50;10.40;;;;;;;20.53;33.70;100417.34;683399;28;985;-79
2023/01/01 01:12:00;;;;;;;17.10;9.93;;;;;;;20.40;33.75;100395.50;680754;29;1264;-79
2023/01/01 01:12:20;;;;;;;19.03;10.00;;;;;;;20.45;33.54;100395.41;680848;29;1102;-79
2023/01/01 01:12:41;;;;;;;18.50;10.18;;;;;;;20.46;33.75;100407.75;683264;29;1274;-79
2023/01/01 01:13:02;;;;;;;17.27;10.25;;;;;;;20.45;33.65;100389.22;685483;28;1293;-79
2023/01/01 01:13:22;;;;;;;15.07;10.48;;;;;;;20.43;33.71;100388.38;683459;29;1079;-79
2023/01/01 01:13:45;;;;;;;14.17;10.43;;;;;;;20.40;33.80;100394.63;680646;29;1117;-79
2023/01/01 01:14:06;;;;;;;14.00;10.10;;;;;;;20.36;33.88;100400.91;680805;29;1393;-79
2023/01/01 01:14:26;;;;;;;13.70;9.90;;;;;;;20.40;33.71;100387.56;680781;29;847;-79
2023/01/01 01:14:47;;;;;;;15.10;10.23;;;;;;;20.36;33.74;100395.59;680704;29;1318;-79
2023/01/01 01:15:08;;;;;;;14.33;10.10;;;;;;;20.37;33.76;100384.09;683312;29;1327;-79
2023/01/01 01:15:29;;;;;;;14.93;10.38;;;;;;;20.47;33.80;100404.19;686040;28;765;-79
2023/01/01 01:15:50;;;;;;;13.60;10.18;;;;;;;20.38;33.60;100394.66;685869;28;1160;-79
2023/01/01 01:16:13;;;;;;;14.35;10.10;;;;;;;20.36;33.72;100400.91;680872;29;1003;-79
2023/01/01 01:16:34;;;;;;;17.42;10.18;;;;;;;20.35;33.58;100407.97;680616;29;1515;-79
2023/01/01 01:16:55;;;;;;;16.73;10.10;;;;;;;20.34;33.80;100405.34;680795;29;1506;-79
2023/01/01 01:17:16;;;;;;;18.37;10.87;;;;;;;20.35;33.90;100404.44;686071;28;1329;-79
2023/01/01 01:17:36;;;;;;;16.98;10.75;;;;;;;20.38;33.55;100401.72;685415;28;1253;-79
2023/01/01 01:17:57;;;;;;;17.23;10.50;;;;;;;20.44;33.54;100406.91;683465;29;880;-79
2023/01/01 01:18:18;;;;;;;18.05;10.52;;;;;;;20.37;33.57;100384.97;680726;29;1363;-79
2023/01/01 01:18:39;;;;;;;15.90;10.40;;;;;;;20.41;33.48;100396.41;683187;29;1069;-79
2023/01/01 01:19:02;;;;;;;16.23;10.20;;;;;;;20.41;33.56;100385.78;686149;28;904;-79
2023/01/01 01:19:24;;;;;;;15.55;10.00;;;;;;;20.38;33.38;100396.44;686000;28;1912;-79
2023/01/01 01:19:45;;;;;;;19.27;10.63;;;;;;;20.43;33.29;100405.19;686026;28;1028;-79
2023/01/01 01:20:06;;;;;;;20.30;10.60;;;;;;;20.44;33.49;100396.31;680659;29;1174;-79
2023/01/01 01:20:27;;;;;;;20.92;10.63;;;;;;;20.43;33.23;100404.28;680906;29;889;-79
2023/01/01 01:20:50;;;;;;;21.37;10.60;;;;;;;20.47;33.65;100406.00;680644;29;1174;-79
2023/01/01 01:21:16;;;;;;;20.65;10.82;;;;;;;20.38;33.44;100417.63;680924;29;1115;-79
2023/01/01 01:21:36;;;;;;;20.13;10.85;;;;;;;20.34;33.52;100419.47;680681;29;1001;-79
2023/01/01 01:21:57;;;;;;;17.67;10.90;;;;;;;20.35;33.49;100401.81;680747;29;1291;-79
2023/01/01 01:22:18;;;;;;;18.07;11.07;;;;;;;20.27;33.80;100397.50;683410;28;1145;-79
2023/01/01 01:22:38;;;;;;;18.70;10.60;;;;;;;20.36;33.64;100420.28;683218;29;1260;-79
2023/01/01 01:23:00;;;;;;;18.77;10.20;;;;;;;20.30;33.46;100415.13;680566;29;1655;-79
2023/01/01 01:23:20;;;;;;;16.80;9.87;;;;;;;20.31;33.38;100398.34;680816;29;1204;-79
2023/01/01 01:23:41;;;;;;;16.38;10.00;;;;;;;20.33;33.42;100399.16;685895;28;1146;-79
2023/01/01 01:24:03;;;;;;;16.98;10.02;;;;;;;20.23;33.44;100394.94;688582;28;1287;-79
2023/01/01 01:24:23;;;;;;;16.83;10.00;;;;;;;20.35;33.66;100412.41;688809;28;897;-79
2023/01/01 01:24:44;;;;;;;17.05;9.70;;;;;;;20.34;33.53;100421.25;683243;29;1123;-79
2023/01/01 01:25:06;;;;;;;16.90;9.85;;;;;;;20.36;33.48;100411.50;678175;29;1106;-79
2023/01/01 01:25:26;;;;;;;17.63;10.18;;;;;;;20.32;33.46;100404.50;680792;29;1354;-79
2023/01/01 01:25:47;;;;;;;16.58;10.32;;;;;;;20.37;33.28;100395.56;683226;28;1312;-79
2023/01/01 01:26:13;;;;;;;17.00;10.27;;;;;;;20.39;33.28;100400.81;680830;28;1236;-79
2023/01/01 01:26:35;;;;;;;19.88;9.95;;;;;;;20.36;33.23;100399.09;683317;29;1196;-79
2023/01/01 01:26:57;;;;;;;18.92;9.70;;;;;;;20.31;33.57;100394.78;686087;28;1241;-79
2023/01/01 01:27:18;;;;;;;15.95;9.85;;;;;;;20.26;33.45;100390.47;688769;28;1102;-79
2023/01/01 01:27:38;;;;;;;16.97;10.13;;;;;;;20.27;33.43;100389.56;683282;29;1304;-79
2023/01/01 01:27:59;;;;;;;16.30;9.87;;;;;;;20.28;33.66;100406.31;683449;28;841;-79
2023/01/01 01:28:19;;;;;;;18.40;9.77;;;;;;;20.34;33.53;100400.06;685975;28;1203;-79
2023/01/01 01:28:41;;;;;;;16.88;9.60;;;;;;;20.32;33.46;100391.25;685814;28;1188;-79
2023/01/01 01:29:03;;;;;;;17.60;10.00;;;;;;;20.13;33.56;100400.44;683305;29;1145;-79
2023/01/01 01:29:23;;;;;;;16.13;10.10;;;;;;;20.21;33.33;100405.56;683408;29;1868;-79
2023/01/01 01:29:44;;;;;;;17.07;10.00;;;;;;;20.12;33.65;100390.69;683224;29;1176;-79
2023/01/01 01:30:05;;;;;;;15.48;9.60;;;;;;;20.15;33.66;100389.78;686033;28;1485;-78
2023/01/01 01:30:26;;;;;;;14.93;9.80;;;;;;;20.12;33.86;100393.34;680774;29;1511;-79
2023/01/01 01:30:47;;;;;;;14.98;10.05;;;;;;;20.22;33.63;100401.16;678109;29;987;-78
2023/01/01 01:31:08;;;;;;;14.85;10.18;;;;;;;20.08;33.71;100404.03;678093;29;1076;-79
2023/01/01 01:31:31;;;;;;;18.27;9.90;;;;;;;20.03;33.88;100401.47;678224;29;1114;-80
2023/01/01 01:31:52;;;;;;;20.35;9.90;;;;;;;20.20;33.81;100393.22;677895;29;1056;-78
2023/01/01 01:32:12;;;;;;;20.98;9.88;;;;;;;20.11;33.59;100401.34;680820;29;1266;-79
2023/01/01 01:32:33;;;;;;;21.23;10.13;;;;;;;20.14;33.45;100393.34;683377;29;1297;-79
2023/01/01 01:32:54;;;;;;;19.10;10.10;;;;;;;20.15;33.55;100400.38;680649;29;1277;-79
2023/01/01 01:33:15;;;;;;;19.42;10.30;;;;;;;20.11;33.43;100396.91;680660;29;1302;-79
2023/01/01 01:33:44;;;;;;;17.75;10.27;;;;;;;20.14;33.56;100401.28;680738;29;848;-79
2023/01/01 01:34:05;;;;;;;18.98;10.40;;;;;;;20.27;33.47;100424.00;680725;29;1038;-79
2023/01/01 01:34:25;;;;;;;17.45;9.77;;;;;;;20.19;33.49;100401.19;680662;28;1113;-79
2023/01/01 01:34:46;;;;;;;19.55;9.93;;;;;;;20.31;33.45;100423.94;683640;28;994;-79
2023/01/01 01:35:07;;;;;;;17.93;9.50;;;;;;;20.28;33.20;100414.25;683374;28;1080;-79
2023/01/01 01:35:28;;;;;;;18.53;9.83;;;;;;;20.23;33.29;100409.06;682345;29;1229;-79
2023/01/01 01:35:50;;;;;;;20.75;10.00;;;;;;;20.26;33.37;100410.78;680669;29;1096;-79
2023/01/01 01:36:13;;;;;;;19.75;10.10;;;;;;;20.24;33.33;100400.19;680866;29;1089;-79
2023/01/01 01:36:33;;;;;;;17.08;9.50;;;;;;;20.15;33.47;100395.06;685886;28;1173;-79
2023/01/01 01:36:54;;;;;;;15.40;9.38;;;;;;;20.22;33.36;100407.31;686032;28;1025;-79
2023/01/01 01:37:15;;;;;;;13.32;9.00;;;;;;;20.14;33.39;100409.22;683374;28;1116;-78
2023/01/01 01:37:36;;;;;;;13.65;9.20;;;;;;;20.18;33.45;100420.66;680565;29;1146;-79
2023/01/01 01:37:56;;;;;;;15.37;9.27;;;;;;;20.11;33.45;100406.66;680706;28;821;-79
2023/01/01 01:38:18;;;;;;;16.95;9.23;;;;;;;20.17;33.46;100422.44;680692;28;1073;-79
2023/01/01 01:38:39;;;;;;;16.83;8.90;;;;;;;20.16;33.45;100428.59;683262;28;1078;-79
2023/01/01 01:39:00;;;;;;;13.75;8.35;;;;;;;20.22;33.25;100409.97;683341;28;1341;-79
2023/01/01 01:39:20;;;;;;;14.27;8.60;;;;;;;20.23;33.20;100421.44;680492;29;1981;-79
2023/01/01 01:39:41;;;;;;;14.27;8.80;;;;;;;20.11;33.42;100417.25;680544;29;1147;-79
2023/01/01 01:40:02;;;;;;;17.00;9.27;;;;;;;20.19;33.29;100415.31;680570;29;1182;-79
2023/01/01 01:40:23;;;;;;;15.80;8.85;;;;;;;20.19;33.31;100417.09;677972;29;1187;-79
2023/01/01 01:40:43;;;;;;;17.00;8.95;;;;;;;20.16;33.27;100410.06;677985;29;1351;-78